FLX3764 SBGO-SBBR
Flight info
| Callsign | FLX3764 |
|---|---|
| Flight time | 0h 20m |
| Altitude | 15000 |
| Route | LODUV Z15 PAJEM |
| Aircraft | A20N/M-SDE2E3FGHIRWXY/LB1 |
Departure
| Time | 2026-04-26 23:50 |
|---|---|
| Airport | Santa Genoveva International Airport (SBGO) |
Arrival
| Time | 2026-04-27 00:10 |
|---|---|
| Airport | Presidente Juscelino Kubitschek International Airport (SBBR) |
| Time | Latitude | Longitude | Altitude | Speed | Heading |
|---|---|---|---|---|---|
| 2026-04-26 23:35 | -16.63030 | -49.21467 | 2478 ft | 0 kts | 46° |
| 2026-04-26 23:41 | -16.63039 | -49.21477 | 2477 ft | 2 kts | 46° |
| 2026-04-26 23:41 | -16.63049 | -49.21489 | 2477 ft | 2 kts | 46° |
| 2026-04-26 23:41 | -16.63060 | -49.21500 | 2476 ft | 2 kts | 46° |
| 2026-04-26 23:42 | -16.63069 | -49.21512 | 2476 ft | 2 kts | 68° |
| 2026-04-26 23:42 | -16.63068 | -49.21543 | 2475 ft | 2 kts | 121° |
| 2026-04-26 23:42 | -16.63063 | -49.21550 | 2475 ft | 0 kts | 138° |
| 2026-04-26 23:43 | -16.63057 | -49.21555 | 2475 ft | 0 kts | 140° |
| 2026-04-26 23:44 | -16.63081 | -49.21534 | 2475 ft | 8 kts | 135° |
| 2026-04-26 23:44 | -16.63121 | -49.21489 | 2476 ft | 8 kts | 132° |
| 2026-04-26 23:45 | -16.63158 | -49.21443 | 2477 ft | 7 kts | 121° |
| 2026-04-26 23:45 | -16.63183 | -49.21398 | 2479 ft | 7 kts | 120° |
| 2026-04-26 23:45 | -16.63213 | -49.21345 | 2481 ft | 9 kts | 120° |
| 2026-04-26 23:45 | -16.63250 | -49.21280 | 2482 ft | 11 kts | 120° |
| 2026-04-26 23:46 | -16.63262 | -49.21259 | 2483 ft | 12 kts | 120° |
| 2026-04-26 23:46 | -16.63300 | -49.21192 | 2484 ft | 13 kts | 120° |
| 2026-04-26 23:46 | -16.63355 | -49.21096 | 2485 ft | 16 kts | 120° |
| 2026-04-26 23:46 | -16.63452 | -49.21025 | 2484 ft | 18 kts | 168° |
| 2026-04-26 23:47 | -16.63585 | -49.21010 | 2482 ft | 17 kts | 201° |
| 2026-04-26 23:47 | -16.63617 | -49.21028 | 2482 ft | 0 kts | 212° |
| 2026-04-26 23:47 | -16.63651 | -49.21051 | 2481 ft | 9 kts | 213° |
| 2026-04-26 23:48 | -16.63717 | -49.21093 | 2478 ft | 12 kts | 211° |
| 2026-04-26 23:48 | -16.63744 | -49.21112 | 2478 ft | 0 kts | 250° |
| 2026-04-26 23:49 | -16.63744 | -49.21113 | 2478 ft | 0 kts | 250° |
| 2026-04-26 23:49 | -16.63744 | -49.21133 | 2477 ft | 4 kts | 300° |
| 2026-04-26 23:49 | -16.63718 | -49.21176 | 2476 ft | 8 kts | 301° |
| 2026-04-26 23:49 | -16.63656 | -49.21287 | 2474 ft | 46 kts | 300° |
| 2026-04-26 23:50 | -16.63355 | -49.21823 | 2461 ft | 123 kts | 299° |
| 2026-04-26 23:50 | -16.62816 | -49.22788 | 2525 ft | 176 kts | 300° |
| 2026-04-26 23:50 | -16.62176 | -49.23920 | 3088 ft | 189 kts | 301° |
| 2026-04-26 23:50 | -16.61474 | -49.25138 | 3671 ft | 199 kts | 301° |
| 2026-04-26 23:51 | -16.60737 | -49.26426 | 4219 ft | 210 kts | 301° |
| 2026-04-26 23:51 | -16.59961 | -49.27792 | 4756 ft | 224 kts | 301° |
| 2026-04-26 23:51 | -16.59110 | -49.29241 | 5265 ft | 239 kts | 308° |
| 2026-04-26 23:51 | -16.57767 | -49.30291 | 5702 ft | 254 kts | 345° |
| 2026-04-26 23:52 | -16.55988 | -49.30291 | 6226 ft | 264 kts | 21° |
| 2026-04-26 23:52 | -16.54494 | -49.29171 | 6826 ft | 272 kts | 56° |
| 2026-04-26 23:52 | -16.53750 | -49.27374 | 7566 ft | 275 kts | 75° |
| 2026-04-26 23:52 | -16.53258 | -49.25405 | 8272 ft | 282 kts | 76° |
| 2026-04-26 23:53 | -16.52736 | -49.23428 | 9008 ft | 287 kts | 74° |
| 2026-04-26 23:53 | -16.52150 | -49.21454 | 9739 ft | 291 kts | 72° |
| 2026-04-26 23:53 | -16.51501 | -49.19443 | 10459 ft | 295 kts | 71° |
| 2026-04-26 23:53 | -16.50802 | -49.17379 | 10893 ft | 309 kts | 70° |
| 2026-04-26 23:54 | -16.50045 | -49.15214 | 11208 ft | 327 kts | 70° |
| 2026-04-26 23:54 | -16.49233 | -49.12938 | 11502 ft | 344 kts | 70° |
| 2026-04-26 23:54 | -16.48370 | -49.10557 | 11780 ft | 361 kts | 69° |
| 2026-04-26 23:54 | -16.47455 | -49.08045 | 12036 ft | 376 kts | 69° |
| 2026-04-26 23:55 | -16.46509 | -49.05446 | 12259 ft | 390 kts | 69° |
| 2026-04-26 23:55 | -16.45520 | -49.02729 | 12497 ft | 403 kts | 69° |
| 2026-04-26 23:55 | -16.44514 | -48.99964 | 12901 ft | 410 kts | 69° |
| 2026-04-26 23:55 | -16.43505 | -48.97192 | 13393 ft | 413 kts | 69° |
| 2026-04-26 23:56 | -16.42473 | -48.94361 | 13643 ft | 423 kts | 69° |
| 2026-04-26 23:56 | -16.41412 | -48.91450 | 13989 ft | 429 kts | 69° |
| 2026-04-26 23:56 | -16.40356 | -48.88554 | 14560 ft | 428 kts | 69° |
| 2026-04-26 23:56 | -16.39312 | -48.85691 | 14929 ft | 427 kts | 69° |
| 2026-04-26 23:57 | -16.38177 | -48.82849 | 15106 ft | 427 kts | 65° |
| 2026-04-26 23:57 | -16.36846 | -48.80078 | 15123 ft | 426 kts | 61° |
| 2026-04-26 23:57 | -16.35317 | -48.77430 | 15122 ft | 425 kts | 57° |
| 2026-04-26 23:57 | -16.33701 | -48.74854 | 15116 ft | 426 kts | 56° |
| 2026-04-26 23:58 | -16.32054 | -48.72266 | 15125 ft | 426 kts | 56° |
| 2026-04-26 23:58 | -16.30419 | -48.69697 | 15114 ft | 426 kts | 56° |
| 2026-04-26 23:58 | -16.28784 | -48.67124 | 15117 ft | 426 kts | 56° |
| 2026-04-26 23:58 | -16.27145 | -48.64539 | 15015 ft | 425 kts | 57° |
| 2026-04-26 23:59 | -16.25506 | -48.61951 | 14783 ft | 422 kts | 57° |
| 2026-04-26 23:59 | -16.24079 | -48.59296 | 14514 ft | 417 kts | 63° |
| 2026-04-26 23:59 | -16.22660 | -48.56734 | 14004 ft | 403 kts | 57° |
| 2026-04-26 23:59 | -16.21153 | -48.54356 | 13331 ft | 384 kts | 56° |
| 2026-04-27 00:00 | -16.19717 | -48.52117 | 12698 ft | 365 kts | 57° |
| 2026-04-27 00:00 | -16.18349 | -48.49950 | 12104 ft | 347 kts | 57° |
| 2026-04-27 00:00 | -16.17070 | -48.47893 | 11557 ft | 331 kts | 58° |
| 2026-04-27 00:00 | -16.15868 | -48.45938 | 11052 ft | 316 kts | 58° |
| 2026-04-27 00:01 | -16.14706 | -48.44035 | 10672 ft | 309 kts | 58° |
| 2026-04-27 00:01 | -16.13557 | -48.42147 | 10347 ft | 303 kts | 58° |
| 2026-04-27 00:01 | -16.12446 | -48.40316 | 10030 ft | 298 kts | 58° |
| 2026-04-27 00:01 | -16.11344 | -48.38498 | 9725 ft | 293 kts | 58° |
| 2026-04-27 00:02 | -16.10257 | -48.36705 | 9423 ft | 289 kts | 58° |
| 2026-04-27 00:02 | -16.09190 | -48.34943 | 9125 ft | 285 kts | 58° |
| 2026-04-27 00:02 | -16.08150 | -48.33219 | 8799 ft | 282 kts | 58° |
| 2026-04-27 00:02 | -16.07105 | -48.31483 | 8449 ft | 280 kts | 58° |
| 2026-04-27 00:03 | -16.06073 | -48.29773 | 8081 ft | 279 kts | 58° |
| 2026-04-27 00:03 | -16.05035 | -48.28059 | 7684 ft | 280 kts | 58° |
| 2026-04-27 00:03 | -16.03997 | -48.26349 | 7269 ft | 281 kts | 58° |
| 2026-04-27 00:03 | -16.02952 | -48.24625 | 6962 ft | 277 kts | 58° |
| 2026-04-27 00:04 | -16.01904 | -48.22979 | 6803 ft | 268 kts | 50° |
| 2026-04-27 00:04 | -16.00432 | -48.21835 | 6579 ft | 262 kts | 27° |
| 2026-04-27 00:04 | -15.98789 | -48.21063 | 6405 ft | 255 kts | 24° |
| 2026-04-27 00:04 | -15.97122 | -48.20298 | 6228 ft | 271 kts | 26° |
| 2026-04-27 00:05 | -15.95400 | -48.19449 | 5968 ft | 275 kts | 27° |
| 2026-04-27 00:05 | -15.93740 | -48.18403 | 5658 ft | 273 kts | 41° |
| 2026-04-27 00:05 | -15.92515 | -48.16937 | 5535 ft | 262 kts | 58° |
| 2026-04-27 00:05 | -15.91583 | -48.15379 | 5525 ft | 247 kts | 59° |
| 2026-04-27 00:06 | -15.90715 | -48.13885 | 5516 ft | 232 kts | 60° |
| 2026-04-27 00:06 | -15.89892 | -48.12452 | 5527 ft | 228 kts | 60° |
| 2026-04-27 00:06 | -15.89242 | -48.11015 | 5524 ft | 226 kts | 76° |
| 2026-04-27 00:06 | -15.89007 | -48.09435 | 5559 ft | 226 kts | 86° |
| 2026-04-27 00:07 | -15.88928 | -48.07756 | 5586 ft | 226 kts | 88° |
| 2026-04-27 00:07 | -15.88858 | -48.06139 | 5593 ft | 219 kts | 87° |
| 2026-04-27 00:07 | -15.88766 | -48.04599 | 5402 ft | 211 kts | 86° |
| 2026-04-27 00:07 | -15.88667 | -48.03131 | 5219 ft | 196 kts | 86° |
| 2026-04-27 00:08 | -15.88574 | -48.01760 | 4967 ft | 180 kts | 86° |
| 2026-04-27 00:08 | -15.88491 | -48.00515 | 4709 ft | 166 kts | 86° |
| 2026-04-27 00:08 | -15.88415 | -47.99361 | 4481 ft | 152 kts | 86° |
| 2026-04-27 00:08 | -15.88344 | -47.98272 | 4301 ft | 150 kts | 86° |
| 2026-04-27 00:09 | -15.88274 | -47.97192 | 4127 ft | 150 kts | 86° |
| 2026-04-27 00:09 | -15.88207 | -47.96106 | 3936 ft | 149 kts | 86° |
| 2026-04-27 00:09 | -15.88135 | -47.95028 | 3742 ft | 147 kts | 86° |
| 2026-04-27 00:09 | -15.88063 | -47.93978 | 3564 ft | 143 kts | 86° |
| 2026-04-27 00:10 | -15.88001 | -47.93051 | 3500 ft | 93 kts | 89° |
| 2026-04-27 00:10 | -15.87972 | -47.92504 | 3477 ft | 69 kts | 85° |
| 2026-04-27 00:10 | -15.87941 | -47.92094 | 3465 ft | 44 kts | 87° |
| 2026-04-27 00:10 | -15.87890 | -47.91832 | 3461 ft | 31 kts | 63° |
| 2026-04-27 00:11 | -15.87802 | -47.91689 | 3461 ft | 16 kts | 56° |
| 2026-04-27 00:11 | -15.87770 | -47.91639 | 3461 ft | 6 kts | 57° |
| 2026-04-27 00:11 | -15.87744 | -47.91597 | 3461 ft | 7 kts | 57° |
| 2026-04-27 00:11 | -15.87712 | -47.91557 | 3462 ft | 6 kts | 32° |
| 2026-04-27 00:12 | -15.87641 | -47.91554 | 3465 ft | 16 kts | 354° |
| 2026-04-27 00:12 | -15.87530 | -47.91562 | 3469 ft | 12 kts | 357° |
| 2026-04-27 00:12 | -15.87481 | -47.91565 | 3474 ft | 1 kts | 356° |
| 2026-04-27 00:12 | -15.87321 | -47.91568 | 3481 ft | 0 kts | 356° |
| 2026-04-27 00:13 | -15.87320 | -47.91568 | 3482 ft | 0 kts | 356° |
| 2026-04-27 00:13 | -15.87320 | -47.91569 | 3482 ft | 0 kts | 356° |
| 2026-04-27 00:13 | -15.87305 | -47.91626 | 3483 ft | 0 kts | 356° |
| 2026-04-27 00:13 | -15.87274 | -47.91755 | 3482 ft | 0 kts | 356° |
| 2026-04-27 00:14 | -15.87274 | -47.91756 | 3482 ft | 0 kts | 356° |